Time;durP1;ratioP1;P1;durP2;ratioP2;P2;SDS_P1;SDS_P2;PMS_P1;PMS_P2;Temp;Humidity;BMP_temperature;BMP_pressure;BME280_temperature;BME280_humidity;BME280_pressure;Samples;Min_cycle;Max_cycle;Signal;HPM_P1;HPM_P2
2022/05/24 00:02:08;;;;;;;4.90;4.30;;;;;;;12.22;73.57;98206.45;104837;1274;70476;-72
2022/05/24 00:04:34;;;;;;;5.20;4.60;;;;;;;12.22;73.54;98207.85;104866;1274;73318;-71
2022/05/24 00:07:01;;;;;;;5.40;4.40;;;;;;;12.23;73.71;98211.51;104801;1274;61491;-71
2022/05/24 00:09:28;;;;;;;4.60;4.00;;;;;;;12.23;73.96;98211.64;104583;1274;61351;-71
2022/05/24 00:11:54;;;;;;;5.10;4.10;;;;;;;12.23;73.97;98206.36;104812;1274;61375;-71
2022/05/24 00:17:08;;;;;;;5.50;4.30;;;;;;;12.21;74.13;98206.30;104849;1268;74586;-70
2022/05/24 00:19:35;;;;;;;5.30;4.80;;;;;;;12.21;74.01;98208.84;105196;1268;61249;-71
2022/05/24 00:22:02;;;;;;;4.30;3.70;;;;;;;12.21;74.17;98208.69;105247;1268;62143;-70
2022/05/24 00:24:28;;;;;;;5.30;4.60;;;;;;;12.20;74.28;98208.23;105191;1268;75345;-71
2022/05/24 00:26:55;;;;;;;6.30;5.00;;;;;;;12.19;74.34;98205.21;105257;1268;61348;-71
2022/05/24 00:29:21;;;;;;;5.60;5.00;;;;;;;12.17;74.53;98202.54;105271;1268;61359;-71
2022/05/24 00:31:49;;;;;;;5.00;4.30;;;;;;;12.16;74.43;98198.73;105220;1268;61298;-71
2022/05/24 00:34:16;;;;;;;4.90;4.30;;;;;;;12.15;74.72;98199.02;105268;1268;61337;-69
2022/05/24 00:36:42;;;;;;;4.80;4.30;;;;;;;12.14;74.77;98194.26;105071;1268;61496;-71
2022/05/24 00:39:09;;;;;;;4.80;4.30;;;;;;;12.13;74.89;98191.73;105319;1268;61329;-70
2022/05/24 00:41:40;;;;;;;5.30;4.50;;;;;;;12.12;74.98;98194.80;105188;1268;61298;-70
2022/05/24 00:44:13;;;;;;;5.50;4.40;;;;;;;12.10;75.23;98187.68;105028;1271;273714;-72
2022/05/24 00:47:03;;;;;;;5.90;4.60;;;;;;;12.09;75.29;98187.03;105278;1268;61303;-71
2022/05/24 00:49:53;;;;;;;4.90;4.40;;;;;;;12.08;75.33;98189.98;105375;1268;74773;-70
2022/05/24 00:52:29;;;;;;;6.40;4.40;;;;;;;12.07;75.46;98189.38;105273;1268;69246;-71
2022/05/24 00:54:58;;;;;;;5.20;4.50;;;;;;;12.06;75.34;98177.52;105264;1268;73346;-72
2022/05/24 00:57:44;;;;;;;6.10;5.00;;;;;;;12.05;75.49;98177.79;105050;1268;61285;-70
2022/05/24 01:00:21;;;;;;;4.60;4.10;;;;;;;12.04;75.58;98172.17;105226;1268;61405;-70
2022/05/24 01:02:49;;;;;;;5.90;4.30;;;;;;;12.02;75.66;98167.33;105178;1268;73363;-70
2022/05/24 01:05:25;;;;;;;5.60;4.30;;;;;;;12.01;75.93;98169.39;105191;1268;70395;-71
2022/05/24 01:07:52;;;;;;;5.00;4.50;;;;;;;11.99;75.97;98157.84;105199;1268;74473;-70
2022/05/24 01:10:29;;;;;;;5.70;5.00;;;;;;;11.97;76.11;98155.34;105276;1268;61561;-70
2022/05/24 01:12:58;;;;;;;5.60;5.20;;;;;;;11.95;76.13;98155.32;105352;1268;61393;-71
2022/05/24 01:15:25;;;;;;;7.80;7.10;;;;;;;11.94;76.30;98159.30;105209;1268;74161;-70
2022/05/24 01:17:54;;;;;;;6.20;5.20;;;;;;;11.94;76.52;98159.00;105188;1268;69752;-70
2022/05/24 01:20:22;;;;;;;5.00;4.50;;;;;;;11.93;76.67;98154.08;105453;1268;73337;-70
2022/05/24 01:23:07;;;;;;;6.30;4.90;;;;;;;11.93;76.95;98153.02;105364;1268;61301;-70
2022/05/24 01:25:57;;;;;;;6.20;5.50;;;;;;;11.92;77.03;98154.15;105261;1268;61354;-71
2022/05/24 01:28:28;;;;;;;5.40;5.00;;;;;;;11.91;77.23;98154.48;105199;1268;76687;-71
2022/05/24 01:30:55;;;;;;;5.70;4.70;;;;;;;11.89;77.21;98151.55;105155;1268;67456;-71
2022/05/24 01:36:09;;;;;;;5.20;4.80;;;;;;;11.87;77.49;98149.27;105182;1268;61457;-70
2022/05/24 01:38:43;;;;;;;5.60;5.00;;;;;;;11.85;77.72;98144.74;105230;1268;61278;-71
2022/05/24 01:41:13;;;;;;;4.70;4.20;;;;;;;11.85;77.87;98144.02;105265;1268;74345;-71
2022/05/24 01:43:39;;;;;;;5.10;4.60;;;;;;;11.84;78.02;98141.40;105205;1268;67899;-70
2022/05/24 01:46:10;;;;;;;6.50;4.70;;;;;;;11.83;78.13;98139.71;105214;1268;73430;-71
2022/05/24 01:48:48;;;;;;;5.30;4.80;;;;;;;11.83;78.21;98133.92;105232;1268;61300;-71
2022/05/24 01:51:21;;;;;;;5.50;5.00;;;;;;;11.82;78.72;98129.14;105233;1268;61321;-72
2022/05/24 01:53:53;;;;;;;5.60;5.00;;;;;;;11.81;78.72;98122.86;105040;1271;76449;-71
2022/05/24 01:56:28;;;;;;;6.90;5.30;;;;;;;11.78;79.07;98121.30;105249;1268;68450;-71
2022/05/24 01:58:58;;;;;;;6.00;5.20;;;;;;;11.76;79.18;98116.88;105224;1268;72237;-72
2022/05/24 02:01:54;;;;;;;6.40;5.80;;;;;;;11.74;79.35;98115.10;105439;1268;61217;-72
2022/05/24 02:04:23;;;;;;;8.10;5.80;;;;;;;11.72;79.59;98112.80;104645;1276;61422;-70
2022/05/24 02:07:13;;;;;;;8.50;5.50;;;;;;;11.70;79.92;98109.00;104808;1277;74538;-71
2022/05/24 02:09:46;;;;;;;6.20;5.20;;;;;;;11.67;80.12;98108.03;104831;1277;68867;-71
2022/05/24 02:12:29;;;;;;;6.40;5.40;;;;;;;11.64;80.00;98108.60;104847;1277;74213;-71
2022/05/24 02:15:10;;;;;;;5.90;5.20;;;;;;;11.62;80.34;98109.46;104744;1277;61292;-71
2022/05/24 02:17:45;;;;;;;;;;;;;;;11.60;80.67;98108.60;104836;1277;61345;-70
2022/05/24 02:20:17;;;;;;;5.90;5.00;;;;;;;11.56;80.68;98111.98;104839;1277;75546;-72
2022/05/24 02:22:46;;;;;;;5.90;5.10;;;;;;;11.54;81.05;98111.27;104796;1277;68467;-70
2022/05/24 02:25:20;;;;;;;5.40;4.90;;;;;;;11.52;81.17;98114.11;104537;1278;73677;-70
2022/05/24 02:27:47;;;;;;;5.90;5.30;;;;;;;11.50;81.22;98109.13;104823;1277;61453;-72
2022/05/24 02:30:19;;;;;;;6.50;5.40;;;;;;;11.49;81.54;98110.27;104574;1277;61356;-71
2022/05/24 02:32:45;;;;;;;6.20;5.40;;;;;;;11.45;81.72;98108.48;104788;1277;74950;-71
2022/05/24 02:35:13;;;;;;;6.50;5.70;;;;;;;11.42;81.76;98103.52;104797;1277;67347;-71
2022/05/24 02:37:40;;;;;;;8.30;5.80;;;;;;;11.41;81.60;98107.73;104703;1277;74450;-71
2022/05/24 02:42:53;;;;;;;7.80;5.70;;;;;;;11.35;82.29;98104.70;105246;1268;61254;-71
2022/05/24 02:45:20;;;;;;;7.80;6.20;;;;;;;11.32;82.16;98108.86;105250;1268;74682;-70
2022/05/24 02:47:48;;;;;;;6.40;5.70;;;;;;;11.30;82.63;98104.98;105260;1268;70420;-70
2022/05/24 02:50:15;;;;;;;6.90;6.20;;;;;;;11.28;82.51;98098.20;105222;1268;73255;-70
2022/05/24 02:52:42;;;;;;;6.90;6.20;;;;;;;11.27;82.58;98097.75;105059;1268;61442;-71
2022/05/24 02:55:10;;;;;;;8.50;6.30;;;;;;;11.27;82.61;98095.82;105217;1268;61272;-72
2022/05/24 02:57:38;;;;;;;6.80;6.20;;;;;;;11.27;82.72;98096.69;105208;1268;74069;-71
2022/05/24 03:00:12;;;;;;;8.80;6.40;;;;;;;11.27;82.79;98089.72;105227;1268;70284;-70
2022/05/24 03:02:39;;;;;;;6.30;5.70;;;;;;;11.28;83.01;98090.02;105243;1268;73226;-70
2022/05/24 03:05:10;;;;;;;7.70;5.60;;;;;;;11.29;83.25;98091.72;105237;1268;61275;-72
2022/05/24 03:10:22;;;;;;;6.30;5.70;;;;;;;11.27;83.62;98090.79;105173;1268;75159;-71
2022/05/24 03:15:37;;;;;;;7.50;6.50;;;;;;;11.28;83.69;98084.85;104947;1274;72391;-71
2022/05/24 03:18:03;;;;;;;9.00;6.50;;;;;;;11.29;83.90;98079.23;105186;1268;61219;-71
2022/05/24 03:20:30;;;;;;;7.50;6.50;;;;;;;11.29;84.08;98088.84;105207;1268;61186;-71
2022/05/24 03:22:56;;;;;;;7.30;6.50;;;;;;;11.30;83.95;98090.04;105217;1272;61613;-72
2022/05/24 03:25:23;;;;;;;7.30;6.70;;;;;;;11.31;84.17;98091.69;105207;1268;61374;-72
2022/05/24 03:27:49;;;;;;;6.90;6.20;;;;;;;11.33;84.08;98098.67;104952;1269;61355;-71
2022/05/24 03:30:17;;;;;;;10.00;5.90;;;;;;;11.36;83.98;98094.66;105174;1268;61271;-71
2022/05/24 03:32:43;;;;;;;7.00;6.30;;;;;;;11.39;84.05;98094.05;105206;1268;61245;-70
2022/05/24 03:35:13;;;;;;;7.30;6.60;;;;;;;11.41;84.03;98092.44;105209;1268;61249;-71
2022/05/24 03:37:40;;;;;;;8.80;6.20;;;;;;;11.43;84.13;98094.06;105269;1268;67386;-72
2022/05/24 03:40:09;;;;;;;7.40;6.70;;;;;;;11.44;84.11;98098.45;105231;1268;70269;-72
2022/05/24 03:42:37;;;;;;;9.60;8.70;;;;;;;11.46;84.32;98098.43;105311;1268;61400;-71
2022/05/24 03:45:06;;;;;;;12.00;10.90;;;;;;;11.46;84.25;98096.84;105226;1268;62232;-71
2022/05/24 03:47:32;;;;;;;11.00;9.90;;;;;;;11.48;84.27;98095.98;105215;1268;75134;-72
2022/05/24 03:49:59;;;;;;;9.80;8.80;;;;;;;11.51;84.33;98095.41;105218;1268;69469;-71
2022/05/24 03:52:25;;;;;;;10.10;8.80;;;;;;;11.54;84.38;98096.02;105209;1268;61365;-70
2022/05/24 03:54:52;;;;;;;9.40;8.40;;;;;;;11.54;84.19;98100.06;105204;1268;61271;-71
2022/05/24 04:00:05;;;;;;;44.50;40.70;;;;;;;11.57;84.24;98115.44;105219;1268;76146;-72
2022/05/24 04:02:32;;;;;;;30.50;28.00;;;;;;;11.58;84.18;98120.36;105334;1268;70187;-71
2022/05/24 04:04:58;;;;;;;13.80;12.50;;;;;;;11.62;84.35;98123.23;105195;1268;61320;-71
2022/05/24 04:07:25;;;;;;;9.20;8.20;;;;;;;11.65;84.29;98119.23;105211;1268;61367;-71
2022/05/24 04:09:51;;;;;;;7.80;7.10;;;;;;;11.67;84.19;98119.77;105002;1268;61234;-71
2022/05/24 04:12:18;;;;;;;7.80;7.00;;;;;;;11.70;84.37;98118.14;105237;1268;61306;-71
2022/05/24 04:14:44;;;;;;;7.40;6.60;;;;;;;11.70;84.22;98123.08;105196;1268;61360;-71
2022/05/24 04:17:11;;;;;;;7.20;6.30;;;;;;;11.72;84.43;98119.03;105217;1268;61368;-70
2022/05/24 04:19:37;;;;;;;8.70;7.70;;;;;;;11.74;84.51;98116.73;105241;1268;61314;-70
2022/05/24 04:22:03;;;;;;;10.40;9.10;;;;;;;11.73;84.25;98116.98;105184;1268;61300;-70
2022/05/24 04:24:30;;;;;;;10.90;9.30;;;;;;;11.74;84.51;98115.95;105267;1268;61405;-70
2022/05/24 04:26:57;;;;;;;10.60;8.90;;;;;;;11.76;84.40;98112.80;105028;1268;61597;-70
2022/05/24 04:29:23;;;;;;;8.20;7.30;;;;;;;11.79;84.43;98115.90;105182;1268;61363;-72
2022/05/24 04:31:50;;;;;;;7.50;6.70;;;;;;;11.79;84.30;98114.82;105202;1268;61309;-72
2022/05/24 04:34:16;;;;;;;7.80;7.00;;;;;;;11.78;84.31;98111.14;105020;1268;61448;-71
2022/05/24 04:36:43;;;;;;;7.70;6.30;;;;;;;11.76;84.38;98104.23;105194;1268;61425;-70
2022/05/24 04:39:10;;;;;;;8.20;6.60;;;;;;;11.73;84.66;98108.56;105222;1268;70666;-71
2022/05/24 04:44:23;;;;;;;6.90;6.30;;;;;;;11.73;85.71;98120.01;105181;1268;61293;-70
2022/05/24 04:47:08;;;;;;;7.50;6.80;;;;;;;11.71;86.22;98126.95;105237;1268;61380;-71
2022/05/24 04:49:37;;;;;;;7.20;6.50;;;;;;;11.65;86.97;98125.81;105218;1268;76390;-71
2022/05/24 04:52:05;;;;;;;6.90;6.30;;;;;;;11.63;87.84;98128.64;105380;1268;68156;-71
2022/05/24 04:54:33;;;;;;;7.00;6.40;;;;;;;11.67;88.01;98127.44;105391;1268;72152;-71
2022/05/24 04:56:59;;;;;;;8.90;7.30;;;;;;;11.72;88.62;98127.92;105177;1268;61281;-70
2022/05/24 04:59:26;;;;;;;6.90;6.30;;;;;;;11.80;89.04;98131.63;105239;1268;61259;-71
2022/05/24 05:01:52;;;;;;;7.40;6.70;;;;;;;11.90;88.79;98130.14;104970;1268;61270;-71
2022/05/24 05:04:20;;;;;;;8.10;6.80;;;;;;;12.00;89.17;98126.20;105236;1268;70399;-71
2022/05/24 05:06:47;;;;;;;7.70;7.00;;;;;;;12.12;89.08;98123.02;105302;1268;72677;-72
2022/05/24 05:09:14;;;;;;;7.50;6.60;;;;;;;12.21;89.12;98119.38;105221;1268;61496;-69
2022/05/24 05:11:41;;;;;;;8.00;7.20;;;;;;;12.26;89.03;98121.95;105223;1268;61458;-70
2022/05/24 05:14:09;;;;;;;6.50;5.90;;;;;;;12.27;88.64;98127.39;105232;1268;76317;-71
2022/05/24 05:16:37;;;;;;;7.10;6.50;;;;;;;12.24;88.72;98131.60;105252;1268;69734;-72
2022/05/24 05:19:06;;;;;;;6.60;6.00;;;;;;;12.23;88.83;98137.61;105252;1268;73302;-71
2022/05/24 05:21:34;;;;;;;7.70;7.00;;;;;;;12.23;89.07;98144.19;105225;1268;61255;-71
2022/05/24 05:24:03;;;;;;;6.40;5.80;;;;;;;12.25;89.22;98139.75;105279;1268;62130;-72
2022/05/24 05:26:30;;;;;;;6.90;6.20;;;;;;;12.26;89.60;98136.55;105050;1268;74089;-72
2022/05/24 05:28:56;;;;;;;7.30;6.40;;;;;;;12.31;89.35;98135.84;105196;1268;68204;-72
2022/05/24 05:31:26;;;;;;;7.40;6.70;;;;;;;12.36;89.62;98133.80;105270;1268;73840;-71
2022/05/24 05:33:55;;;;;;;10.60;9.60;;;;;;;12.42;89.59;98136.63;105248;1268;61378;-72
2022/05/24 05:36:22;;;;;;;8.30;7.60;;;;;;;12.46;89.98;98135.76;105466;1268;62188;-71
2022/05/24 05:38:49;;;;;;;10.20;9.10;;;;;;;12.50;89.86;98136.92;105229;1268;75713;-72
2022/05/24 05:41:23;;;;;;;7.50;6.80;;;;;;;12.52;89.75;98136.42;105214;1268;70387;-71
2022/05/24 05:43:50;;;;;;;8.30;7.10;;;;;;;12.52;89.82;98143.02;105216;1268;73399;-71
2022/05/24 05:46:18;;;;;;;7.50;6.80;;;;;;;12.51;89.67;98146.02;105224;1268;61383;-71
2022/05/24 05:48:45;;;;;;;7.40;6.70;;;;;;;12.47;89.64;98147.03;104961;1268;61206;-72
2022/05/24 05:51:13;;;;;;;9.50;6.80;;;;;;;12.46;89.88;98152.64;105234;1268;73820;-73
2022/05/24 05:53:40;;;;;;;7.80;7.00;;;;;;;12.47;90.09;98151.90;105225;1268;69586;-72
2022/05/24 05:56:13;;;;;;;6.80;6.20;;;;;;;12.48;90.24;98150.13;105185;1268;73559;-72
2022/05/24 05:58:40;;;;;;;10.90;7.60;;;;;;;12.51;90.43;98147.73;105254;1268;61274;-72
2022/05/24 06:01:12;;;;;;;7.70;7.10;;;;;;;12.56;90.51;98151.06;105219;1268;61367;-72
2022/05/24 06:03:38;;;;;;;9.30;7.50;;;;;;;12.65;90.43;98151.36;105238;1268;75338;-71
2022/05/24 06:06:05;;;;;;;8.00;7.10;;;;;;;12.73;90.38;98153.64;105274;1268;61288;-72
2022/05/24 06:08:32;;;;;;;8.10;7.30;;;;;;;12.82;90.14;98150.94;105038;1272;73314;-68
2022/05/24 06:10:58;;;;;;;7.70;7.00;;;;;;;12.95;90.53;98155.61;105366;1267;61403;-72
2022/05/24 06:13:25;;;;;;;7.40;6.80;;;;;;;13.09;90.39;98155.73;105265;1268;61409;-70
2022/05/24 06:15:52;;;;;;;8.60;6.90;;;;;;;13.19;89.65;98157.55;105198;1268;75570;-71
2022/05/24 06:18:18;;;;;;;8.50;7.30;;;;;;;13.24;89.43;98159.43;105295;1268;70351;-72
2022/05/24 06:20:45;;;;;;;8.00;7.20;;;;;;;13.26;89.15;98158.33;105224;1268;73502;-71
2022/05/24 06:23:11;;;;;;;9.10;7.20;;;;;;;13.27;89.30;98165.55;105260;1268;61404;-71
2022/05/24 06:25:40;;;;;;;7.90;6.40;;;;;;;13.30;88.87;98172.04;105245;1267;61286;-71
2022/05/24 06:28:07;;;;;;;7.00;6.30;;;;;;;13.31;88.67;98170.40;105037;1269;75450;-71
2022/05/24 06:30:33;;;;;;;8.50;7.40;;;;;;;13.33;88.57;98170.20;105225;1268;61372;-72
2022/05/24 06:33:00;;;;;;;7.50;6.50;;;;;;;13.40;88.67;98167.48;105228;1268;72467;-72
2022/05/24 06:35:27;;;;;;;7.30;6.60;;;;;;;13.47;88.62;98169.81;105293;1268;61441;-70
2022/05/24 06:37:54;;;;;;;7.60;6.80;;;;;;;13.55;88.42;98174.27;105270;1267;61907;-71
2022/05/24 06:40:22;;;;;;;7.50;6.70;;;;;;;13.63;88.57;98173.13;105220;1268;75666;-71
2022/05/24 06:42:49;;;;;;;7.30;6.60;;;;;;;13.74;87.90;98174.50;105249;1268;69251;-71
2022/05/24 06:45:16;;;;;;;7.00;6.30;;;;;;;13.78;87.17;98172.69;104991;1268;72201;-71
2022/05/24 06:47:42;;;;;;;9.10;6.90;;;;;;;13.84;87.03;98177.67;105254;1268;61371;-71
2022/05/24 06:50:12;;;;;;;7.90;6.80;;;;;;;13.97;86.64;98177.67;105237;1268;61371;-71
2022/05/24 06:52:38;;;;;;;7.10;6.40;;;;;;;14.09;86.28;98179.60;105407;1268;74394;-70
2022/05/24 06:55:07;;;;;;;7.60;6.90;;;;;;;14.22;86.07;98183.34;105234;1268;68845;-71
2022/05/24 06:57:33;;;;;;;7.60;6.10;;;;;;;14.42;85.76;98185.70;105229;1268;73192;-71
2022/05/24 07:02:46;;;;;;;9.00;6.50;;;;;;;15.00;85.06;98180.47;105293;1268;61845;-71
2022/05/24 07:05:20;;;;;;;6.90;6.30;;;;;;;15.29;83.50;98181.02;105004;1269;76541;-71
2022/05/24 07:07:46;;;;;;;9.60;7.00;;;;;;;15.50;83.14;98181.98;105291;1268;70795;-72
2022/05/24 07:10:18;;;;;;;7.60;6.90;;;;;;;15.71;83.36;98177.38;105254;1268;73589;-71
2022/05/24 07:12:45;;;;;;;7.40;6.60;;;;;;;15.84;82.70;98181.10;105480;1268;61313;-72
2022/05/24 07:15:12;;;;;;;7.10;6.50;;;;;;;15.91;82.42;98177.89;105273;1268;61346;-71
2022/05/24 07:17:39;;;;;;;8.00;7.20;;;;;;;16.01;81.91;98184.69;105236;1268;75652;-71
2022/05/24 07:20:06;;;;;;;6.90;6.10;;;;;;;16.18;81.74;98179.21;105055;1268;61382;-71
2022/05/24 07:22:33;;;;;;;10.90;7.20;;;;;;;16.40;81.06;98177.16;105421;1268;74327;-73
2022/05/24 07:24:59;;;;;;;7.80;6.60;;;;;;;16.74;79.93;98172.00;105243;1267;61393;-71
2022/05/24 07:27:26;;;;;;;9.40;6.90;;;;;;;17.06;78.20;98164.27;105231;1267;61291;-72
2022/05/24 07:29:53;;;;;;;6.90;6.20;;;;;;;17.37;77.57;98160.41;105015;1268;74605;-71
2022/05/24 07:32:20;;;;;;;9.00;6.50;;;;;;;17.66;76.68;98153.84;105247;1268;69384;-71
2022/05/24 07:34:46;;;;;;;8.20;6.80;;;;;;;17.84;75.27;98161.23;105231;1268;74257;-70
2022/05/24 07:37:15;;;;;;;9.40;7.00;;;;;;;17.82;74.89;98162.52;105246;1268;61330;-72
2022/05/24 07:39:42;;;;;;;7.90;6.90;;;;;;;17.89;74.66;98164.50;105191;1268;61282;-71
2022/05/24 07:47:39;;;;;;;8.00;6.70;;;;;;;18.69;72.75;98150.59;105230;1268;73621;-71
2022/05/24 07:50:06;;;;;;;8.00;6.60;;;;;;;19.17;71.70;98148.77;105224;1268;61341;-72
2022/05/24 07:52:32;;;;;;;8.50;6.40;;;;;;;19.56;70.90;98146.49;105291;1268;61160;-71
2022/05/24 07:54:59;;;;;;;7.50;6.80;;;;;;;19.81;69.24;98146.08;105237;1268;61310;-72
2022/05/24 07:57:26;;;;;;;9.30;7.00;;;;;;;19.93;68.60;98145.40;105237;1268;70326;-71
2022/05/24 07:59:52;;;;;;;9.10;7.00;;;;;;;19.93;68.15;98143.70;105234;1268;61338;-72
2022/05/24 08:02:20;;;;;;;6.90;6.30;;;;;;;19.89;68.14;98144.64;105254;1268;61284;-71
2022/05/24 08:04:46;;;;;;;7.20;6.50;;;;;;;19.93;68.34;98144.09;105075;1268;61532;-72
2022/05/24 08:07:13;;;;;;;13.00;6.70;;;;;;;20.05;68.35;98142.39;105230;1268;61334;-71
2022/05/24 08:09:39;;;;;;;5.80;5.20;;;;;;;20.11;67.85;98144.52;105258;1268;61317;-71
2022/05/24 08:12:06;;;;;;;6.60;6.10;;;;;;;20.17;67.80;98148.49;105217;1271;74290;-71
2022/05/24 08:14:34;;;;;;;9.60;6.80;;;;;;;20.15;67.24;98146.92;105261;1267;61364;-71
2022/05/24 08:17:00;;;;;;;10.30;6.80;;;;;;;20.09;66.93;98148.30;105182;1268;62173;-71
2022/05/24 08:19:27;;;;;;;8.50;7.00;;;;;;;20.06;66.87;98149.20;105224;1268;61190;-69
2022/05/24 08:21:53;;;;;;;8.20;6.60;;;;;;;20.05;66.34;98151.05;105010;1268;61419;-71
2022/05/24 08:24:20;;;;;;;8.20;7.40;;;;;;;20.10;66.69;98145.89;105244;1268;73423;-71
2022/05/24 08:26:46;;;;;;;7.40;6.60;;;;;;;20.27;66.46;98145.31;104970;1268;61355;-71
2022/05/24 08:29:13;;;;;;;8.30;7.00;;;;;;;20.54;66.23;98149.80;105223;1268;61326;-70
2022/05/24 08:31:39;;;;;;;8.30;6.90;;;;;;;20.73;65.33;98147.36;105223;1268;61303;-72
2022/05/24 08:34:07;;;;;;;7.10;6.40;;;;;;;20.75;64.99;98146.59;105250;1268;69299;-71
2022/05/24 08:36:35;;;;;;;8.70;6.60;;;;;;;20.77;64.87;98142.64;105254;1268;73190;-72
2022/05/24 08:39:03;;;;;;;7.50;6.70;;;;;;;20.80;64.72;98140.29;105233;1270;61396;-72
2022/05/24 08:41:56;;;;;;;11.70;6.60;;;;;;;20.89;64.63;98143.48;105231;1268;61356;-71
2022/05/24 08:50:09;;;;;;;8.00;7.20;;;;;;;20.78;63.62;98154.84;105251;1268;73786;-73
2022/05/24 08:52:43;;;;;;;8.50;6.10;;;;;;;20.69;63.86;98154.84;105266;1268;61406;-70
2022/05/24 08:55:11;;;;;;;7.20;6.00;;;;;;;20.71;64.17;98157.13;105237;1268;61396;-70
2022/05/24 08:57:59;;;;;;;9.20;6.00;;;;;;;20.67;63.70;98157.86;105245;1268;76656;-70
2022/05/24 09:00:39;;;;;;;9.30;6.30;;;;;;;20.53;63.77;98165.02;105219;1268;70559;-70
2022/05/24 09:03:07;;;;;;;7.20;6.50;;;;;;;20.45;64.09;98164.69;105259;1268;73147;-71
2022/05/24 09:05:38;;;;;;;7.30;5.90;;;;;;;20.34;64.23;98169.32;105178;1271;61317;-73
2022/05/24 09:08:28;;;;;;;9.40;7.30;;;;;;;20.27;65.43;98172.57;105335;1268;61294;-70
2022/05/24 09:11:27;;;;;;;7.10;6.30;;;;;;;20.19;65.64;98176.45;105077;1268;76830;-71
2022/05/24 09:14:08;;;;;;;8.60;6.60;;;;;;;20.01;65.88;98177.86;104772;1277;69143;-71
2022/05/24 09:16:54;;;;;;;8.40;7.30;;;;;;;19.85;66.68;98174.81;104787;1276;74263;-71
2022/05/24 09:19:25;;;;;;;8.90;7.00;;;;;;;19.75;67.51;98182.70;104521;1277;61313;-70
2022/05/24 09:21:53;;;;;;;8.50;7.60;;;;;;;19.71;68.16;98190.94;104850;1275;61324;-71
2022/05/24 09:24:38;;;;;;;7.50;6.80;;;;;;;19.72;68.43;98190.40;104802;1277;75198;-69
2022/05/24 09:27:20;;;;;;;8.20;7.40;;;;;;;19.85;68.68;98181.27;104824;1277;69216;-70
2022/05/24 09:30:14;;;;;;;7.80;6.70;;;;;;;19.96;68.59;98184.48;104945;1277;71292;-70
2022/05/24 09:32:43;;;;;;;7.70;6.90;;;;;;;19.90;68.58;98185.05;104806;1277;61640;-70
2022/05/24 09:35:16;;;;;;;9.00;7.30;;;;;;;19.85;68.92;98182.39;104830;1277;61546;-71
2022/05/24 09:37:46;;;;;;;9.10;7.70;;;;;;;19.80;69.52;98180.48;104709;1277;74647;-70
2022/05/24 09:40:22;;;;;;;11.10;8.40;;;;;;;19.79;70.22;98181.49;104897;1277;67911;-71
2022/05/24 09:42:50;;;;;;;9.80;8.60;;;;;;;19.74;71.10;98179.50;104554;1277;74419;-71
2022/05/24 09:45:23;;;;;;;12.90;8.20;;;;;;;19.68;71.09;98181.11;104532;1277;61380;-70
2022/05/24 09:47:59;;;;;;;9.70;8.00;;;;;;;19.52;71.05;98186.08;104910;1276;61789;-72
2022/05/24 09:50:25;;;;;;;9.20;8.30;;;;;;;19.45;71.70;98185.49;104800;1274;74529;-72
2022/05/24 09:53:19;;;;;;;9.40;8.50;;;;;;;19.42;72.78;98188.65;105263;1268;61243;-69
2022/05/24 09:55:53;;;;;;;8.90;7.80;;;;;;;19.45;72.65;98185.77;105172;1268;73272;-71
2022/05/24 09:58:23;;;;;;;9.20;8.30;;;;;;;19.48;72.73;98186.05;104936;1268;61362;-68
2022/05/24 10:01:04;;;;;;;9.10;7.80;;;;;;;19.54;72.56;98183.01;105090;1268;61373;-70
2022/05/24 10:03:45;;;;;;;8.90;7.50;;;;;;;19.52;72.73;98183.69;105160;1268;76368;-71
2022/05/24 10:06:28;;;;;;;8.30;7.60;;;;;;;19.43;72.76;98184.63;105258;1268;67734;-70
2022/05/24 10:08:58;;;;;;;18.40;8.30;;;;;;;19.32;73.27;98182.30;105238;1268;74560;-70
2022/05/24 10:11:43;;;;;;;11.10;8.60;;;;;;;19.25;73.47;98181.64;105217;1268;61393;-70
2022/05/24 10:14:28;;;;;;;10.80;8.80;;;;;;;19.18;73.51;98177.99;105244;1268;61182;-71
2022/05/24 10:17:07;;;;;;;10.90;8.30;;;;;;;19.06;73.73;98176.47;105232;1268;76864;-70
2022/05/24 10:20:05;;;;;;;10.40;8.40;;;;;;;19.02;73.96;98177.43;105110;1268;69430;-72
2022/05/24 10:22:56;;;;;;;9.10;7.40;;;;;;;19.09;73.93;98178.52;105028;1272;74423;-71
2022/05/24 10:25:45;;;;;;;8.30;7.50;;;;;;;19.21;73.68;98178.91;105285;1268;61212;-70
2022/05/24 10:28:38;;;;;;;10.80;7.70;;;;;;;19.38;73.55;98178.38;105058;1268;61289;-70
2022/05/24 10:31:14;;;;;;;9.70;8.00;;;;;;;19.56;73.17;98179.34;105249;1268;76150;-70
2022/05/24 10:40:22;;;;;;;12.60;8.50;;;;;;;19.57;72.93;98184.05;105015;1268;61287;-71
2022/05/24 10:43:04;;;;;;;11.10;8.60;;;;;;;19.54;73.05;98185.30;105336;1268;61237;-71
2022/05/24 10:45:50;;;;;;;8.90;8.00;;;;;;;19.47;73.66;98186.87;105276;1267;75474;-71
2022/05/24 10:48:58;;;;;;;9.10;8.10;;;;;;;19.43;73.80;98181.92;105177;1268;70440;-71
2022/05/24 10:51:56;;;;;;;9.10;7.80;;;;;;;19.41;74.54;98180.15;104599;1276;72916;-71
2022/05/24 10:54:36;;;;;;;8.50;7.70;;;;;;;19.42;74.73;98181.27;103932;1284;61584;-70
2022/05/24 10:57:10;;;;;;;;;;;;;;;19.38;74.79;98182.36;103935;1284;61505;-72
2022/05/24 10:59:58;;;;;;;9.10;7.80;;;;;;;19.33;75.17;98184.90;103972;1284;74867;-71
2022/05/24 11:02:59;;;;;;;9.10;8.00;;;;;;;19.28;75.47;98184.35;103942;1284;69459;-72
2022/05/24 11:05:32;;;;;;;8.80;7.70;;;;;;;19.26;76.19;98179.70;104005;1284;73280;-71
2022/05/24 11:08:30;;;;;;;9.60;8.70;;;;;;;19.28;76.53;98184.23;103932;1284;61550;-71
2022/05/24 11:11:04;;;;;;;10.20;8.90;;;;;;;19.35;77.30;98183.57;103967;1284;61970;-71
2022/05/24 11:13:47;;;;;;;10.30;9.30;;;;;;;19.43;77.05;98184.55;103995;1284;75376;-71
2022/05/24 11:16:21;;;;;;;9.50;8.50;;;;;;;19.48;76.67;98182.02;104059;1284;69528;-72
2022/05/24 11:18:47;;;;;;;9.90;8.90;;;;;;;19.58;76.83;98185.25;103775;1284;74885;-71
2022/05/24 11:21:14;;;;;;;10.20;9.00;;;;;;;19.67;76.68;98184.00;103945;1283;61548;-70
2022/05/24 11:23:51;;;;;;;10.00;8.80;;;;;;;19.74;76.67;98183.16;103989;1284;61366;-70
2022/05/24 11:26:26;;;;;;;12.10;9.40;;;;;;;19.87;76.48;98180.41;103803;1287;75405;-71
2022/05/24 11:29:10;;;;;;;11.10;9.70;;;;;;;20.01;76.34;98183.70;104586;1277;69492;-71
2022/05/24 11:31:42;;;;;;;10.00;8.70;;;;;;;20.14;76.12;98184.12;105008;1271;74557;-71
2022/05/24 11:34:24;;;;;;;8.80;7.90;;;;;;;20.30;75.74;98183.58;105028;1271;61470;-71
2022/05/24 11:37:00;;;;;;;9.20;8.30;;;;;;;20.47;75.71;98182.54;105136;1270;61333;-72
2022/05/24 11:39:33;;;;;;;11.50;7.50;;;;;;;20.65;75.36;98185.45;105080;1271;76318;-72
2022/05/24 11:42:21;;;;;;;9.30;7.80;;;;;;;20.73;74.63;98182.48;105387;1271;68680;-70
2022/05/24 11:44:50;;;;;;;11.10;7.90;;;;;;;20.80;73.93;98177.32;105200;1271;74352;-72
2022/05/24 11:47:35;;;;;;;8.30;7.50;;;;;;;20.83;73.83;98180.54;105001;1271;61300;-71
2022/05/24 11:50:29;;;;;;;9.50;7.80;;;;;;;20.88;73.36;98184.71;104988;1271;61352;-71
2022/05/24 11:53:01;;;;;;;9.00;8.10;;;;;;;20.89;72.51;98174.20;104958;1271;76516;-70
2022/05/24 11:55:56;;;;;;;9.20;7.80;;;;;;;20.97;72.72;98171.55;105202;1271;69306;-70
2022/05/24 11:58:40;;;;;;;8.60;7.40;;;;;;;21.10;71.65;98167.70;105104;1270;74287;-71
2022/05/24 12:01:10;;;;;;;8.70;7.80;;;;;;;21.24;71.65;98168.63;104930;1271;61233;-73
2022/05/24 12:09:26;;;;;;;11.50;8.30;;;;;;;21.83;70.03;98161.95;105212;1271;70029;-71
2022/05/24 12:12:41;;;;;;;10.10;7.60;;;;;;;21.94;69.75;98159.53;105441;1271;73195;-71
2022/05/24 12:15:26;;;;;;;8.80;6.40;;;;;;;22.07;68.09;98159.52;104852;1277;61455;-69
2022/05/24 12:18:15;;;;;;;8.00;6.80;;;;;;;22.12;66.73;98156.89;104505;1277;61404;-72
2022/05/24 12:20:42;;;;;;;11.60;7.40;;;;;;;22.21;66.61;98164.20;104422;1277;75166;-73
2022/05/24 12:23:14;;;;;;;11.30;7.20;;;;;;;22.39;66.24;98160.98;104846;1277;69434;-72
2022/05/24 12:26:03;;;;;;;8.90;6.30;;;;;;;22.55;64.81;98157.49;104774;1277;74481;-72
2022/05/24 12:28:33;;;;;;;9.70;7.50;;;;;;;22.56;62.97;98153.87;104587;1277;61477;-72
2022/05/24 12:31:01;;;;;;;7.60;6.80;;;;;;;22.51;63.19;98156.19;104819;1277;61502;-71
2022/05/24 12:33:30;;;;;;;9.50;8.20;;;;;;;22.66;63.18;98157.33;104772;1276;75464;-72